找回密码
 注册

扫一扫,访问微社区

电巢体系课程上线 钻石会员体验招募

推荐主题

[Cadence Sigrity] PowerSI 怎么进行DC仿真 3人参与 新人帖 attach_img 电子学生 2020-2-15 18:01 3 142 aarom 2020-2-16 16:23
[Cadence Sigrity] power si求助 3人参与 新人帖 attach_img wangyu88808 2020-2-13 11:07 6 84 hyxs714154 2020-2-22 10:48
[Cadence Sigrity] SIGRITY POWER SI问题求助 2人参与 attach_img 11xiaohehe 2020-2-11 18:01 3 106 11xiaohehe 2020-2-16 02:21
[Cadence Sigrity] sigrity提取差分线的S参数,电容两端的线必须merge嘛 3人参与 attach_img hyxs714154 2020-2-6 20:01 7 181 11xiaohehe 2020-2-16 02:08
[Cadence Sigrity] 求助 allegro 如何快速显示top层元件 pad和丝印 5人参与 attach_img 名字最少3字符 2020-2-2 22:50 5 172 bitfz 2020-2-10 15:41
[Cadence Sigrity] power dc 做 散热片怎么把散热片放在散热器件的另一面 1人参与 attach_img lihao 2020-1-16 17:01 1 127 lihao 2020-1-16 17:02
[Cadence Sigrity] 使用Sigrity的IR Drop做PDN直流仿真的学习资料 11人参与 attachment 小猪佩奇AAA 2020-1-13 20:13 11 212 gclfly 2020-2-13 15:52
[Cadence Sigrity] 使用sigrity做PI&SI仿真的资料 16人参与 新人帖 attachment recommend  ...2 小猪佩奇AAA 2020-1-13 20:03 16 314 deo_hejie 2020-2-21 17:12
[Cadence Sigrity] OPI里面计算电容的回路电感包含电容本身的寄生电感了嘛? attach_img hyxs714154 2020-1-10 11:54 0 102 hyxs714154 2020-1-10 11:54
[Cadence Sigrity] 打开SigXplorer 中组件用不了 2人参与 attach_img fang05081248 2020-1-8 22:46 2 125 fang05081248 2020-1-9 23:24
[Cadence Sigrity] Sigrity种加上电容的寄生参数讨论 3人参与 attach_img hyxs714154 2020-1-8 14:50 7 133 hyxs714154 2020-1-9 18:02
[Cadence Sigrity] Allegro16.5 中进行SI 仿真 5人参与 attachment mars_yang 2020-1-7 09:11 5 139 HSH125 2020-2-15 23:56
[Cadence Sigrity] cadence 17.2 allegro怎么才能有ansys插件,转brd文件到Siwave中,教程allegro带an... 4人参与 attach_img hyxs714154 2020-1-6 20:03 4 233 kkk228 2020-2-18 20:05
[Cadence Sigrity] 怎么理解Buffer模型 1人参与 rainwwww 2020-1-6 11:43 1 129 yangjinxing521 2020-1-6 16:51
[Cadence Sigrity] 咨询下介电常数DK低的,带来的损耗也越低嘛? 2人参与 attach_img hyxs714154 2019-12-31 16:56 2 198 dzkcool 2020-1-1 18:32
[Cadence Sigrity] TDR tr设置100ps和30ps的对比,那种情况更反映了真实情况呢 6人参与 attach_img hyxs714154 2019-12-25 21:38 9 227 fengyu6117 2020-1-13 09:00
[Cadence Sigrity] system SI仿真问题 2人参与 leafcai85 2019-12-25 17:34 3 196 xieda2005 2020-1-13 11:50
[Cadence Sigrity] Sigrity差分线跑TDR port设置问题 5人参与 attach_img hyxs714154 2019-12-24 19:16 6 227 hyxs714154 2020-1-20 08:02
[Cadence Sigrity] 类似Hyperlynx Linesim的架构 1人参与 attach_img ladice 2019-12-23 09:46 1 106 liujie123 2019-12-23 15:24
[Cadence Sigrity] 3D EM玻纤效应这里设置树脂怎么设置不了DK和损耗? 4人参与 attach_img hyxs714154 2019-12-22 16:04 9 153 chenxiaohaosm 2020-1-3 14:30
[Cadence Sigrity] 3D FEM铜箔粗糙度在哪里设置? attach_img hyxs714154 2019-12-22 13:25 0 119 hyxs714154 2019-12-22 13:25
[Cadence Sigrity] 用POWER DC的3D功能仿真时软件会闪退 3人参与 梦的世界 2019-12-20 11:12 3 174 lihao 2019-12-26 09:07
[Cadence Sigrity] TDR仿真差分线经过IC也需要赋予模型嘛 2人参与 attach_img hyxs714154 2019-12-19 19:27 2 148 hyxs714154 2019-12-20 21:59
[Cadence Sigrity] 想学Sigrity可是不知道怎么安装。 6人参与 新人帖 mochao19890925 2019-12-18 17:32 6 210 alan_china888 2020-1-13 10:24
[Cadence Sigrity] SPD_file这个文件在17.2里面那个位置,一直没找到 2人参与 attach_img hyxs714154 2019-12-16 22:43 2 127 dzkcool 2019-12-17 09:26
下一页 »
还可输入 80 个字符
您需要登录后才可以发帖 登录 | 注册

本版积分规则

EDA365公众号

关于我们|手机版|EDA365电子论坛网 ( 粤ICP备18020198号 )

GMT+8, 2020-2-25 03:45 , Processed in 0.109375 second(s), 60 queries , Gzip On.

深圳市墨知创新科技有限公司

地址:深圳市南山区科技生态园2栋A座805 电话:19925233282

返回顶部 返回版块
抢庄牌九网站 易股通配资 宇轩配资 内蒙古快3 股票分析师炒股厉害吗 即时篮球比分 上海快三 牛势策略 福建36选7 四川成都股票配资利息 第一棒球比分直播 4场进球 95配资 球探网足球即时比分网 国际主要股票指数 三门峡期货配资 竞彩比分推荐唯看